createdAt,value
2022-08-22T00:02:37.586Z,15.70
2022-08-22T00:02:43.484Z,16.39
2022-08-22T00:02:53.247Z,16.49
2022-08-22T00:03:00.779Z,16.62
2022-08-22T00:03:03.716Z,16.50
2022-08-22T00:03:08.938Z,16.47
2022-08-22T00:05:24.263Z,15.70
2022-08-22T00:08:15.107Z,15.71
2022-08-22T00:10:54.874Z,15.70
2022-08-22T00:13:32.999Z,15.70
2022-08-22T00:16:26.167Z,15.66
2022-08-22T00:19:31.721Z,15.69
2022-08-22T00:22:17.164Z,15.70
2022-08-22T00:25:26.049Z,15.69
2022-08-22T00:28:28.863Z,15.68
2022-08-22T00:31:17.775Z,15.65
2022-08-22T00:34:03.902Z,15.63
2022-08-22T00:36:39.562Z,15.65
2022-08-22T00:39:13.413Z,15.67
2022-08-22T00:42:08.188Z,15.67
2022-08-22T00:45:12.906Z,15.63
2022-08-22T00:48:09.111Z,15.62
2022-08-22T00:51:23.419Z,15.57
2022-08-22T00:53:55.545Z,15.58
2022-08-22T00:56:45.200Z,15.57
2022-08-22T00:59:23.329Z,15.55
2022-08-22T01:02:02.518Z,15.55
2022-08-22T01:04:38.443Z,15.54
2022-08-22T01:07:37.936Z,15.51
2022-08-22T01:10:23.942Z,15.49
2022-08-22T01:13:10.708Z,15.45
2022-08-22T01:15:39.748Z,15.44
2022-08-22T01:18:48.788Z,15.43
2022-08-22T01:21:46.747Z,15.43
2022-08-22T01:25:01.584Z,15.43
2022-08-22T01:27:48.141Z,15.42
2022-08-22T01:30:47.580Z,15.40
2022-08-22T01:33:45.263Z,15.38
2022-08-22T01:36:18.110Z,15.38
2022-08-22T01:39:09.465Z,15.36
2022-08-22T01:42:05.434Z,15.33
2022-08-22T01:44:57.180Z,15.32
2022-08-22T01:47:29.736Z,15.32
2022-08-22T01:50:18.767Z,15.31
2022-08-22T01:53:07.117Z,15.30
2022-08-22T01:55:52.489Z,15.29
2022-08-22T01:58:28.137Z,15.29
2022-08-22T02:01:28.439Z,15.28
2022-08-22T02:03:55.568Z,15.27
2022-08-22T02:06:37.511Z,15.26
2022-08-22T02:09:10.844Z,15.24
2022-08-22T02:11:55.056Z,15.24
2022-08-22T02:14:43.656Z,15.24
2022-08-22T02:17:24.855Z,15.24
2022-08-22T02:20:03.586Z,15.24
2022-08-22T02:22:37.175Z,15.21
2022-08-22T02:25:19.581Z,15.18
2022-08-22T02:28:12.602Z,15.15
2022-08-22T02:30:48.912Z,15.15
2022-08-22T02:33:32.690Z,15.13
2022-08-22T02:36:26.988Z,15.13
2022-08-22T02:39:19.394Z,15.11
2022-08-22T02:42:00.588Z,15.10
2022-08-22T02:44:48.018Z,15.10
2022-08-22T02:47:23.830Z,15.09
2022-08-22T02:50:12.969Z,15.06
2022-08-22T02:52:58.891Z,15.08
2022-08-22T02:55:56.089Z,15.07
2022-08-22T02:58:49.582Z,15.04
2022-08-22T03:01:41.176Z,15.03
2022-08-22T03:04:46.284Z,15.01
2022-08-22T03:07:22.180Z,15.03
2022-08-22T03:10:00.177Z,14.99
2022-08-22T03:12:35.092Z,14.98
2022-08-22T03:15:36.972Z,14.98
2022-08-22T03:18:13.005Z,14.98
2022-08-22T03:20:45.601Z,14.98
2022-08-22T03:23:46.498Z,14.97
2022-08-22T03:26:50.596Z,15.00
2022-08-22T03:29:23.396Z,14.98
2022-08-22T03:32:15.888Z,14.97
2022-08-22T03:35:00.052Z,14.96
2022-08-22T03:37:39.177Z,14.92
2022-08-22T03:40:31.591Z,14.94
2022-08-22T03:43:24.723Z,14.92
2022-08-22T03:46:00.489Z,14.88
2022-08-22T03:48:51.189Z,14.89
2022-08-22T03:51:33.160Z,14.92
2022-08-22T03:54:18.998Z,14.87
2022-08-22T03:57:13.298Z,14.87
2022-08-22T03:59:59.430Z,14.87
2022-08-22T04:02:45.939Z,14.86
2022-08-22T04:05:34.755Z,14.85
2022-08-22T04:08:43.820Z,14.85
2022-08-22T04:11:48.807Z,14.86
2022-08-22T04:14:36.158Z,14.85
2022-08-22T04:17:29.096Z,14.83
2022-08-22T04:20:33.482Z,14.79
2022-08-22T04:23:26.689Z,14.77
2022-08-22T04:26:10.735Z,14.79
2022-08-22T04:28:50.926Z,14.79
2022-08-22T04:31:31.642Z,14.77
2022-08-22T04:34:10.828Z,14.75
2022-08-22T04:36:46.080Z,14.75
2022-08-22T04:39:25.933Z,14.73
2022-08-22T04:42:31.779Z,14.73
2022-08-22T04:45:32.203Z,14.73
2022-08-22T04:48:23.165Z,14.71
2022-08-22T04:50:55.056Z,14.72
2022-08-22T04:53:27.299Z,14.69
2022-08-22T04:56:22.247Z,14.67
2022-08-22T04:59:03.091Z,14.67
2022-08-22T05:01:49.550Z,14.67
2022-08-22T05:04:23.839Z,14.65
2022-08-22T05:07:01.312Z,14.64
2022-08-22T05:09:32.523Z,14.64
2022-08-22T05:12:06.378Z,14.65
2022-08-22T05:14:36.756Z,14.62
2022-08-22T05:17:08.133Z,14.63
2022-08-22T05:19:40.048Z,14.62
2022-08-22T05:22:16.504Z,14.59
2022-08-22T05:24:48.538Z,14.60
2022-08-22T05:27:18.332Z,14.60
2022-08-22T05:29:49.229Z,14.59
2022-08-22T05:32:47.391Z,14.58
2022-08-22T05:35:18.527Z,14.57
2022-08-22T05:37:54.990Z,14.58
2022-08-22T05:40:26.175Z,14.58
2022-08-22T05:42:55.222Z,14.57
2022-08-22T05:45:23.068Z,14.59
2022-08-22T05:47:55.822Z,14.59
2022-08-22T05:50:43.295Z,14.57
2022-08-22T05:53:15.547Z,14.57
2022-08-22T05:55:48.721Z,14.55
2022-08-22T05:58:21.276Z,14.57
2022-08-22T06:00:55.948Z,14.57
2022-08-22T06:03:44.498Z,14.56
2022-08-22T06:06:18.342Z,14.54
2022-08-22T06:09:04.750Z,14.55
2022-08-22T06:11:39.549Z,14.55
2022-08-22T06:14:13.034Z,14.56
2022-08-22T06:16:50.776Z,14.57
2022-08-22T06:19:20.266Z,14.55
2022-08-22T06:21:51.827Z,14.58
2022-08-22T06:24:26.533Z,14.58
2022-08-22T06:26:57.662Z,14.59
2022-08-22T06:29:35.378Z,14.58
2022-08-22T06:32:12.993Z,14.62
2022-08-22T06:34:43.108Z,14.62
2022-08-22T06:37:18.192Z,14.65
2022-08-22T06:39:49.555Z,14.64
2022-08-22T06:42:25.349Z,14.67
2022-08-22T06:45:15.116Z,14.64
2022-08-22T06:48:05.390Z,14.65
2022-08-22T06:50:35.843Z,14.68
2022-08-22T06:53:19.359Z,14.67
2022-08-22T06:55:55.755Z,14.68
2022-08-22T06:58:34.262Z,14.65
2022-08-22T07:01:33.107Z,14.67
2022-08-22T07:04:10.722Z,14.67
2022-08-22T07:06:44.307Z,14.68
2022-08-22T07:09:22.232Z,14.66
2022-08-22T07:11:49.667Z,14.63
2022-08-22T07:14:24.576Z,14.65
2022-08-22T07:17:08.393Z,14.67
2022-08-22T07:19:38.899Z,14.67
2022-08-22T07:22:13.669Z,14.70
2022-08-22T07:24:50.596Z,14.74
2022-08-22T07:27:48.848Z,14.73
2022-08-22T07:30:27.317Z,14.74
2022-08-22T07:33:23.687Z,14.77
2022-08-22T07:35:55.727Z,14.78
2022-08-22T07:38:43.021Z,14.78
2022-08-22T07:41:28.751Z,14.81
2022-08-22T07:44:09.681Z,14.82
2022-08-22T07:46:49.255Z,14.82
2022-08-22T07:49:26.600Z,14.84
2022-08-22T07:51:58.935Z,14.84
2022-08-22T07:54:52.930Z,14.86
2022-08-22T07:57:32.789Z,14.89
2022-08-22T08:00:04.328Z,14.91
2022-08-22T08:02:49.606Z,14.91
2022-08-22T08:05:17.982Z,14.91
2022-08-22T08:07:46.372Z,14.93
2022-08-22T08:10:18.540Z,14.93
2022-08-22T08:12:57.942Z,14.94
2022-08-22T08:15:33.227Z,14.95
2022-08-22T08:18:05.544Z,14.95
2022-08-22T08:20:36.342Z,14.97
2022-08-22T08:23:07.020Z,14.98
2022-08-22T08:25:57.983Z,14.98
2022-08-22T08:28:34.767Z,14.99
2022-08-22T08:31:10.308Z,15.02
2022-08-22T08:33:41.069Z,15.01
2022-08-22T08:36:25.187Z,15.03
2022-08-22T08:38:55.188Z,15.07
2022-08-22T08:41:36.206Z,15.08
2022-08-22T08:44:05.933Z,15.10
2022-08-22T08:46:55.213Z,15.14
2022-08-22T08:50:01.463Z,15.12
2022-08-22T08:52:58.532Z,15.14
2022-08-22T08:55:42.869Z,15.12
2022-08-22T08:58:39.512Z,15.14
2022-08-22T09:01:19.733Z,15.14
2022-08-22T09:04:15.674Z,15.15
2022-08-22T09:06:54.770Z,15.16
2022-08-22T09:09:55.234Z,15.15
2022-08-22T09:16:10.160Z,15.15
2022-08-22T09:18:39.873Z,15.17
2022-08-22T09:21:31.351Z,15.19
2022-08-22T09:24:35.702Z,15.18
2022-08-22T09:27:10.905Z,15.19
2022-08-22T09:29:54.841Z,15.21
2022-08-22T09:32:45.140Z,15.21
2022-08-22T09:35:35.170Z,15.23
2022-08-22T09:38:29.378Z,15.25
2022-08-22T09:40:16.631Z,15.16
2022-08-22T09:41:14.593Z,15.26
2022-08-22T09:43:55.361Z,15.26
2022-08-22T09:46:31.999Z,15.27
2022-08-22T09:49:12.692Z,15.26
2022-08-22T09:51:49.000Z,15.28
2022-08-22T09:54:40.420Z,15.30
2022-08-22T09:57:13.864Z,15.29
2022-08-22T09:59:50.445Z,15.28
2022-08-22T10:02:50.521Z,15.31
2022-08-22T10:05:40.808Z,15.34
2022-08-22T10:08:19.616Z,15.36
2022-08-22T10:10:54.784Z,15.38
2022-08-22T10:13:43.380Z,15.40
2022-08-22T10:16:13.197Z,15.40
2022-08-22T10:19:12.102Z,15.42
2022-08-22T10:22:17.723Z,15.43
2022-08-22T10:25:22.508Z,15.46
2022-08-22T10:28:21.686Z,15.45
2022-08-22T10:31:19.730Z,15.49
2022-08-22T10:33:56.304Z,15.49
2022-08-22T10:36:35.168Z,15.49
2022-08-22T10:39:09.414Z,15.48
2022-08-22T10:41:56.714Z,15.48
2022-08-22T10:44:27.519Z,15.49
2022-08-22T10:46:59.053Z,15.49
2022-08-22T10:49:46.089Z,15.52
2022-08-22T10:52:32.130Z,15.51
2022-08-22T10:55:11.305Z,15.52
2022-08-22T10:57:56.902Z,15.55
2022-08-22T11:00:46.491Z,15.54
2022-08-22T11:03:53.721Z,15.55
2022-08-22T11:06:50.981Z,15.58
2022-08-22T11:09:41.366Z,15.60
2022-08-22T11:12:19.947Z,15.62
2022-08-22T11:15:27.253Z,15.65
2022-08-22T11:18:39.382Z,15.66
2022-08-22T11:21:11.008Z,15.69
2022-08-22T11:23:46.221Z,15.69
2022-08-22T11:26:38.254Z,15.69
2022-08-22T11:29:23.024Z,15.70
2022-08-22T11:32:08.456Z,15.71
2022-08-22T11:34:45.919Z,15.73
2022-08-22T11:37:42.518Z,15.72
2022-08-22T11:40:35.129Z,15.73
2022-08-22T11:43:20.766Z,15.76
2022-08-22T11:45:51.297Z,15.77
2022-08-22T11:48:32.990Z,15.78
2022-08-22T11:51:44.693Z,15.78
2022-08-22T11:54:42.447Z,15.78
2022-08-22T11:57:19.837Z,15.81
2022-08-22T11:59:52.823Z,15.82
2022-08-22T12:02:41.792Z,15.80
2022-08-22T12:05:20.086Z,15.78
2022-08-22T12:08:03.980Z,15.78
2022-08-22T12:10:36.024Z,15.80
2022-08-22T12:13:16.614Z,15.76
2022-08-22T12:15:54.168Z,15.76
2022-08-22T12:18:36.167Z,15.81
2022-08-22T12:21:42.164Z,15.80
2022-08-22T12:24:27.955Z,15.80
2022-08-22T12:27:13.282Z,15.81
2022-08-22T12:29:51.161Z,15.80
2022-08-22T12:32:33.946Z,15.80
2022-08-22T12:35:19.174Z,15.84
2022-08-22T12:38:29.287Z,15.86
2022-08-22T12:41:35.522Z,15.88
2022-08-22T12:44:16.428Z,15.92
2022-08-22T12:47:09.150Z,15.96
2022-08-22T12:50:01.020Z,15.97
2022-08-22T12:53:01.386Z,16.07
2022-08-22T12:55:52.190Z,16.26
2022-08-22T12:58:35.816Z,16.42
2022-08-22T13:01:07.381Z,16.51
2022-08-22T13:03:42.844Z,16.55
2022-08-22T13:06:37.915Z,16.49
2022-08-22T13:09:30.714Z,16.37
2022-08-22T13:12:19.953Z,16.32
2022-08-22T13:14:53.929Z,16.29
2022-08-22T13:17:24.278Z,16.32
2022-08-22T13:20:20.760Z,16.30
2022-08-22T13:22:48.060Z,16.29
2022-08-22T13:25:26.900Z,16.28
2022-08-22T13:28:01.263Z,16.30
2022-08-22T13:30:33.712Z,16.30
2022-08-22T13:33:09.834Z,16.29
2022-08-22T13:35:44.844Z,16.30
2022-08-22T13:38:27.101Z,16.45
2022-08-22T13:40:58.372Z,16.54
2022-08-22T13:43:30.788Z,16.50
2022-08-22T13:46:10.861Z,16.46
2022-08-22T13:48:50.639Z,16.55
2022-08-22T13:51:31.211Z,16.52
2022-08-22T13:54:41.203Z,16.59
2022-08-22T13:57:26.001Z,16.54
2022-08-22T14:00:29.314Z,16.48
2022-08-22T14:02:59.457Z,16.45
2022-08-22T14:05:34.073Z,16.43
2022-08-22T14:08:25.719Z,16.46
2022-08-22T14:11:37.562Z,16.60
2022-08-22T14:14:08.357Z,16.78
2022-08-22T14:16:39.241Z,16.81
2022-08-22T14:19:15.590Z,16.71
2022-08-22T14:21:53.004Z,16.61
2022-08-22T14:24:28.447Z,16.59
2022-08-22T14:27:05.176Z,16.56
2022-08-22T14:29:40.498Z,16.54
2022-08-22T14:32:14.069Z,16.54
2022-08-22T14:34:45.435Z,16.63
2022-08-22T14:37:23.670Z,16.76
2022-08-22T14:39:56.938Z,16.82
2022-08-22T14:42:30.099Z,16.84
2022-08-22T14:45:18.376Z,16.76
2022-08-22T14:48:31.724Z,16.76
2022-08-22T14:51:08.408Z,16.85
2022-08-22T14:53:38.002Z,16.90
2022-08-22T14:56:19.385Z,16.91
2022-08-22T14:59:00.884Z,16.90
2022-08-22T15:01:32.707Z,16.84
2022-08-22T15:04:08.187Z,16.79
2022-08-22T15:06:47.835Z,16.88
2022-08-22T15:09:34.060Z,16.94
2022-08-22T15:12:04.040Z,16.99
2022-08-22T15:14:37.926Z,16.99
2022-08-22T15:17:08.514Z,16.98
2022-08-22T15:19:41.290Z,16.95
2022-08-22T15:22:16.856Z,17.01
2022-08-22T15:24:56.301Z,17.02
2022-08-22T15:27:25.507Z,16.96
2022-08-22T15:29:59.346Z,16.81
2022-08-22T15:32:32.232Z,16.73
2022-08-22T15:35:14.713Z,16.66
2022-08-22T15:38:28.712Z,16.63
2022-08-22T15:40:56.964Z,16.61
2022-08-22T15:43:36.656Z,16.61
2022-08-22T15:46:21.645Z,16.58
2022-08-22T15:49:20.772Z,16.58
2022-08-22T15:51:59.313Z,16.60
2022-08-22T15:54:51.131Z,16.71
2022-08-22T15:57:27.560Z,16.76
2022-08-22T15:59:57.532Z,16.70
2022-08-22T16:02:38.924Z,16.64
2022-08-22T16:05:11.839Z,16.61
2022-08-22T16:07:58.358Z,16.56
2022-08-22T16:10:25.249Z,16.55
2022-08-22T16:13:38.274Z,16.56
2022-08-22T16:16:49.954Z,16.56
2022-08-22T16:19:23.969Z,16.56
2022-08-22T16:21:54.294Z,16.55
2022-08-22T16:24:24.122Z,16.52
2022-08-22T16:26:51.850Z,16.51
2022-08-22T16:29:41.095Z,16.51
2022-08-22T16:32:11.865Z,16.51
2022-08-22T16:34:38.788Z,16.50
2022-08-22T16:37:14.740Z,16.49
2022-08-22T16:39:48.348Z,16.48
2022-08-22T16:42:33.028Z,16.48
2022-08-22T16:45:04.615Z,16.46
2022-08-22T16:47:41.556Z,16.46
2022-08-22T16:50:23.785Z,16.46
2022-08-22T16:53:02.033Z,16.47
2022-08-22T16:55:28.991Z,16.45
2022-08-22T16:58:16.964Z,16.43
2022-08-22T17:01:08.607Z,16.43
2022-08-22T17:03:43.747Z,16.42
2022-08-22T17:06:41.466Z,16.20
2022-08-22T17:09:29.704Z,16.25
2022-08-22T17:12:25.972Z,16.33
2022-08-22T17:15:07.787Z,16.41
2022-08-22T17:18:13.351Z,16.32
2022-08-22T17:20:53.871Z,16.33
2022-08-22T17:23:35.618Z,16.34
2022-08-22T17:26:22.787Z,16.35
2022-08-22T17:28:59.958Z,16.36
2022-08-22T17:31:47.998Z,16.37
2022-08-22T17:34:51.717Z,16.34
2022-08-22T17:37:47.343Z,16.35
2022-08-22T17:40:23.734Z,16.36
2022-08-22T17:43:05.567Z,16.35
2022-08-22T17:45:38.332Z,16.35
2022-08-22T17:48:20.362Z,16.34
2022-08-22T17:50:59.092Z,16.36
2022-08-22T17:53:55.047Z,16.35
2022-08-22T17:56:35.128Z,16.34
2022-08-22T17:59:12.891Z,16.34
2022-08-22T18:01:49.287Z,16.34
2022-08-22T18:04:48.224Z,16.33
2022-08-22T18:07:15.069Z,16.33
2022-08-22T18:10:09.452Z,16.33
2022-08-22T18:13:07.654Z,16.32
2022-08-22T18:15:34.677Z,16.32
2022-08-22T18:18:13.017Z,16.35
2022-08-22T18:20:56.021Z,16.34
2022-08-22T18:24:06.939Z,16.32
2022-08-22T18:26:46.106Z,16.32
2022-08-22T18:29:20.396Z,16.32
2022-08-22T18:32:07.584Z,16.31
2022-08-22T18:35:08.992Z,16.29
2022-08-22T18:37:37.531Z,16.26
2022-08-22T18:40:30.456Z,16.26
2022-08-22T18:43:24.137Z,16.26
2022-08-22T18:45:51.200Z,16.25
2022-08-22T18:48:59.224Z,16.25
2022-08-22T18:51:38.143Z,16.24
2022-08-22T18:54:05.428Z,16.24
2022-08-22T18:57:06.928Z,16.24
2022-08-22T18:59:49.121Z,16.22
2022-08-22T19:02:33.791Z,16.27
2022-08-22T19:05:38.177Z,16.27
2022-08-22T19:08:17.116Z,16.28
2022-08-22T19:11:09.188Z,16.26
2022-08-22T19:13:47.272Z,16.28
2022-08-22T19:16:37.468Z,16.27
2022-08-22T19:20:06.229Z,16.25
2022-08-22T19:22:36.060Z,16.28
2022-08-22T19:25:26.372Z,16.26
2022-08-22T19:28:11.588Z,16.25
2022-08-22T19:30:50.759Z,16.26
2022-08-22T19:33:34.453Z,16.27
2022-08-22T19:36:10.309Z,16.30
2022-08-22T19:39:00.232Z,16.30
2022-08-22T19:41:59.236Z,16.30
2022-08-22T19:44:42.151Z,16.28
2022-08-22T19:47:17.971Z,16.28
2022-08-22T19:49:56.574Z,16.26
2022-08-22T19:52:33.149Z,16.27
2022-08-22T19:55:18.445Z,16.24
2022-08-22T19:58:35.299Z,16.24
2022-08-22T20:01:32.759Z,16.19
2022-08-22T20:04:37.277Z,16.20
2022-08-22T20:07:23.117Z,16.20
2022-08-22T20:10:33.978Z,16.18
2022-08-22T20:13:07.511Z,16.18
2022-08-22T20:16:13.656Z,16.18
2022-08-22T20:19:08.807Z,16.18
2022-08-22T20:21:53.161Z,16.18
2022-08-22T20:24:55.391Z,16.17
2022-08-22T20:27:28.375Z,16.18
2022-08-22T20:30:08.528Z,16.16
2022-08-22T20:32:52.727Z,16.16
2022-08-22T20:35:26.867Z,16.15
2022-08-22T20:38:08.664Z,16.17
2022-08-22T20:40:55.938Z,16.15
2022-08-22T20:43:55.525Z,16.14
2022-08-22T20:46:43.533Z,16.15
2022-08-22T20:49:23.868Z,16.13
2022-08-22T20:52:06.175Z,16.13
2022-08-22T20:54:38.054Z,16.12
2022-08-22T20:57:18.232Z,16.14
2022-08-22T20:59:55.785Z,16.15
2022-08-22T21:02:29.175Z,16.16
2022-08-22T21:05:04.381Z,16.15
2022-08-22T21:07:35.259Z,16.15
2022-08-22T21:10:23.520Z,16.16
2022-08-22T21:13:15.775Z,16.15
2022-08-22T21:15:46.508Z,16.15
2022-08-22T21:18:24.851Z,16.14
2022-08-22T21:20:52.152Z,16.16
2022-08-22T21:23:19.783Z,16.17
2022-08-22T21:25:48.846Z,16.17
2022-08-22T21:28:54.280Z,16.19
2022-08-22T21:31:25.181Z,16.19
2022-08-22T21:33:53.969Z,16.20
2022-08-22T21:36:24.113Z,16.20
2022-08-22T21:39:12.692Z,16.21
2022-08-22T21:42:11.966Z,16.20
2022-08-22T21:44:42.204Z,16.21
2022-08-22T21:47:30.526Z,16.22
2022-08-22T21:50:20.884Z,16.22
2022-08-22T21:52:53.835Z,16.24
2022-08-22T21:55:34.839Z,16.22
2022-08-22T21:58:35.114Z,16.24
2022-08-22T22:01:24.911Z,16.24
2022-08-22T22:03:54.786Z,16.25
2022-08-22T22:06:21.650Z,16.24
2022-08-22T22:08:49.097Z,16.26
2022-08-22T22:11:16.932Z,16.28
2022-08-22T22:13:45.079Z,16.28
2022-08-22T22:16:12.637Z,16.26
2022-08-22T22:18:40.665Z,16.29
2022-08-22T22:21:08.629Z,16.28
2022-08-22T22:23:35.704Z,16.26
2022-08-22T22:26:04.877Z,16.26
2022-08-22T22:28:47.380Z,16.27
2022-08-22T22:31:16.379Z,16.25
2022-08-22T22:33:43.779Z,16.24
2022-08-22T22:36:17.962Z,16.22
2022-08-22T22:38:45.581Z,16.24
2022-08-22T22:41:12.978Z,16.22
2022-08-22T22:43:39.968Z,16.22
2022-08-22T22:46:06.885Z,16.21
2022-08-22T22:48:33.982Z,16.21
2022-08-22T22:51:08.545Z,16.21
2022-08-22T22:53:40.340Z,16.20
2022-08-22T22:56:15.989Z,16.20
2022-08-22T22:58:43.408Z,16.18
2022-08-22T23:01:23.037Z,16.19
2022-08-22T23:03:56.572Z,16.19
2022-08-22T23:06:26.322Z,16.19
2022-08-22T23:08:54.473Z,16.19
2022-08-22T23:11:27.380Z,16.18
2022-08-22T23:13:54.893Z,16.19
2022-08-22T23:16:26.122Z,16.19
2022-08-22T23:18:53.414Z,16.18
2022-08-22T23:21:30.832Z,16.21
2022-08-22T23:24:00.616Z,16.19
2022-08-22T23:26:28.331Z,16.22
2022-08-22T23:28:56.368Z,16.20
2022-08-22T23:31:28.599Z,16.22
2022-08-22T23:33:56.435Z,16.20
2022-08-22T23:36:24.264Z,16.20
2022-08-22T23:38:52.432Z,16.20
2022-08-22T23:41:21.626Z,16.21
2022-08-22T23:43:52.427Z,16.21
2022-08-22T23:46:23.187Z,16.21
2022-08-22T23:48:50.106Z,16.20
2022-08-22T23:51:22.364Z,16.22
2022-08-22T23:53:51.505Z,16.24
2022-08-22T23:56:29.228Z,16.21
2022-08-22T23:58:56.864Z,16.21
